Puerto Madryn, Argentina
Current Conditions -  °F | °C
As of 2:00 PM on Friday 31 Oct 2014 (Local Time) from SAVC Reporting Station
Scattered Clouds Scattered Clouds  
Wind Chill: 41°   Ceiling: Unl
Heat Index: 46°   Visibility: 6mi
Dew Point: 27°   Wind: 13mph
Humidity: 46%   Direction: 200°SSW
Pressure: 30.24"   Gusts: NA
Location:  42.77°S, 65.05°W
Report Text: SAVC 311700Z 20011KT 110V270 9999 SCT02508/M03 Q1024
Loading
Personal Weather Stations






























Interactive Weather Map
Tropical Storm Tracking
New forecast layout! Learn more

10-Day Weather Forecast

Advertisements
Track Severe Weather on mobile